<?xml version="1.0" encoding="UTF-8" standalone="no" ?>
<gpx xmlns="http://www.topografix.com/GPX/1/1" xmlns:xsi="http://www.w3.org/2001/XMLSchema-instance" xsi:schemaLocation="http://www.topografix.com/GPX/1/1 http://www.topografix.com/GPX/1/1/gpx.xsd" version="1.1" creator="VisuGPX - https://www.visugpx.com">
  <metadata>
    <name>circuit 3 km</name>
  </metadata>
  <trk>
    <name><![CDATA[circuit 3 km_1]]></name>
    <trkseg>
      <trkpt lat="44.50247" lon="-0.14064">
        <ele>81</ele>
        <time>2041-07-17T14:37:05+02:00</time>
      </trkpt>
      <trkpt lat="44.50248" lon="-0.14063">
        <ele>81</ele>
        <time>2041-07-17T14:37:10+02:00</time>
      </trkpt>
      <trkpt lat="44.50248" lon="-0.14063">
        <ele>81</ele>
        <time>2041-07-17T14:37:15+02:00</time>
      </trkpt>
      <trkpt lat="44.50247" lon="-0.14062">
        <ele>81</ele>
        <time>2041-07-17T14:37:20+02:00</time>
      </trkpt>
      <trkpt lat="44.50241" lon="-0.14053">
        <ele>81</ele>
        <time>2041-07-17T14:37:25+02:00</time>
      </trkpt>
      <trkpt lat="44.50235" lon="-0.14044">
        <ele>81</ele>
        <time>2041-07-17T14:37:30+02:00</time>
      </trkpt>
      <trkpt lat="44.50233" lon="-0.14038">
        <ele>81.2</ele>
        <time>2041-07-17T14:37:35+02:00</time>
      </trkpt>
      <trkpt lat="44.50234" lon="-0.14036">
        <ele>81.1</ele>
        <time>2041-07-17T14:37:40+02:00</time>
      </trkpt>
      <trkpt lat="44.50242" lon="-0.14025">
        <ele>80.5</ele>
        <time>2041-07-17T14:37:45+02:00</time>
      </trkpt>
      <trkpt lat="44.50252" lon="-0.14012">
        <ele>80</ele>
        <time>2041-07-17T14:37:50+02:00</time>
      </trkpt>
      <trkpt lat="44.50266" lon="-0.13994">
        <ele>79.9</ele>
        <time>2041-07-17T14:37:55+02:00</time>
      </trkpt>
      <trkpt lat="44.50281" lon="-0.13976">
        <ele>79.1</ele>
        <time>2041-07-17T14:38:00+02:00</time>
      </trkpt>
      <trkpt lat="44.50297" lon="-0.13956">
        <ele>78.6</ele>
        <time>2041-07-17T14:38:05+02:00</time>
      </trkpt>
      <trkpt lat="44.50316" lon="-0.1393">
        <ele>77.5</ele>
        <time>2041-07-17T14:38:10+02:00</time>
      </trkpt>
      <trkpt lat="44.50329" lon="-0.13913">
        <ele>76.9</ele>
        <time>2041-07-17T14:38:15+02:00</time>
      </trkpt>
      <trkpt lat="44.50347" lon="-0.13886">
        <ele>76</ele>
        <time>2041-07-17T14:38:20+02:00</time>
      </trkpt>
      <trkpt lat="44.50359" lon="-0.13867">
        <ele>75.4</ele>
        <time>2041-07-17T14:38:25+02:00</time>
      </trkpt>
      <trkpt lat="44.50374" lon="-0.13844">
        <ele>75.3</ele>
        <time>2041-07-17T14:38:30+02:00</time>
      </trkpt>
      <trkpt lat="44.50393" lon="-0.13818">
        <ele>74.9</ele>
        <time>2041-07-17T14:38:35+02:00</time>
      </trkpt>
      <trkpt lat="44.50411" lon="-0.13792">
        <ele>74.2</ele>
        <time>2041-07-17T14:38:40+02:00</time>
      </trkpt>
      <trkpt lat="44.50431" lon="-0.13767">
        <ele>73.8</ele>
        <time>2041-07-17T14:38:45+02:00</time>
      </trkpt>
      <trkpt lat="44.50448" lon="-0.13747">
        <ele>73</ele>
        <time>2041-07-17T14:38:50+02:00</time>
      </trkpt>
      <trkpt lat="44.50466" lon="-0.13725">
        <ele>73</ele>
        <time>2041-07-17T14:38:55+02:00</time>
      </trkpt>
      <trkpt lat="44.50474" lon="-0.13714">
        <ele>73</ele>
        <time>2041-07-17T14:39:00+02:00</time>
      </trkpt>
      <trkpt lat="44.50476" lon="-0.13714">
        <ele>73</ele>
        <time>2041-07-17T14:39:05+02:00</time>
      </trkpt>
      <trkpt lat="44.50483" lon="-0.13722">
        <ele>73</ele>
        <time>2041-07-17T14:39:10+02:00</time>
      </trkpt>
      <trkpt lat="44.50493" lon="-0.13738">
        <ele>73</ele>
        <time>2041-07-17T14:39:15+02:00</time>
      </trkpt>
      <trkpt lat="44.50504" lon="-0.13758">
        <ele>72.8</ele>
        <time>2041-07-17T14:39:20+02:00</time>
      </trkpt>
      <trkpt lat="44.50514" lon="-0.13782">
        <ele>72.4</ele>
        <time>2041-07-17T14:39:25+02:00</time>
      </trkpt>
      <trkpt lat="44.50522" lon="-0.13809">
        <ele>72</ele>
        <time>2041-07-17T14:39:30+02:00</time>
      </trkpt>
      <trkpt lat="44.50529" lon="-0.1384">
        <ele>72</ele>
        <time>2041-07-17T14:39:35+02:00</time>
      </trkpt>
      <trkpt lat="44.50539" lon="-0.13871">
        <ele>72.5</ele>
        <time>2041-07-17T14:39:40+02:00</time>
      </trkpt>
      <trkpt lat="44.50546" lon="-0.13906">
        <ele>72.7</ele>
        <time>2041-07-17T14:39:45+02:00</time>
      </trkpt>
      <trkpt lat="44.5055" lon="-0.13943">
        <ele>72.1</ele>
        <time>2041-07-17T14:39:50+02:00</time>
      </trkpt>
      <trkpt lat="44.50553" lon="-0.13978">
        <ele>71.1</ele>
        <time>2041-07-17T14:39:55+02:00</time>
      </trkpt>
      <trkpt lat="44.50556" lon="-0.14005">
        <ele>71.2</ele>
        <time>2041-07-17T14:40:00+02:00</time>
      </trkpt>
      <trkpt lat="44.50558" lon="-0.14017">
        <ele>71.5</ele>
        <time>2041-07-17T14:40:05+02:00</time>
      </trkpt>
      <trkpt lat="44.5056" lon="-0.14022">
        <ele>71.7</ele>
        <time>2041-07-17T14:40:10+02:00</time>
      </trkpt>
      <trkpt lat="44.50562" lon="-0.14045">
        <ele>71.8</ele>
        <time>2041-07-17T14:40:15+02:00</time>
      </trkpt>
      <trkpt lat="44.50569" lon="-0.14071">
        <ele>71.5</ele>
        <time>2041-07-17T14:40:20+02:00</time>
      </trkpt>
      <trkpt lat="44.50576" lon="-0.14092">
        <ele>71.3</ele>
        <time>2041-07-17T14:40:25+02:00</time>
      </trkpt>
      <trkpt lat="44.50584" lon="-0.14121">
        <ele>71</ele>
        <time>2041-07-17T14:40:30+02:00</time>
      </trkpt>
      <trkpt lat="44.50592" lon="-0.14152">
        <ele>71</ele>
        <time>2041-07-17T14:40:35+02:00</time>
      </trkpt>
      <trkpt lat="44.506" lon="-0.14186">
        <ele>71</ele>
        <time>2041-07-17T14:40:40+02:00</time>
      </trkpt>
      <trkpt lat="44.5061" lon="-0.14221">
        <ele>71</ele>
        <time>2041-07-17T14:40:45+02:00</time>
      </trkpt>
      <trkpt lat="44.50619" lon="-0.1426">
        <ele>70</ele>
        <time>2041-07-17T14:40:50+02:00</time>
      </trkpt>
      <trkpt lat="44.50624" lon="-0.14298">
        <ele>70</ele>
        <time>2041-07-17T14:40:55+02:00</time>
      </trkpt>
      <trkpt lat="44.50628" lon="-0.1433">
        <ele>70</ele>
        <time>2041-07-17T14:41:00+02:00</time>
      </trkpt>
      <trkpt lat="44.50637" lon="-0.14363">
        <ele>70.1</ele>
        <time>2041-07-17T14:41:05+02:00</time>
      </trkpt>
      <trkpt lat="44.50643" lon="-0.14404">
        <ele>70</ele>
        <time>2041-07-17T14:41:10+02:00</time>
      </trkpt>
      <trkpt lat="44.50642" lon="-0.14433">
        <ele>70</ele>
        <time>2041-07-17T14:41:15+02:00</time>
      </trkpt>
      <trkpt lat="44.50645" lon="-0.14467">
        <ele>70</ele>
        <time>2041-07-17T14:41:20+02:00</time>
      </trkpt>
      <trkpt lat="44.50649" lon="-0.145">
        <ele>70</ele>
        <time>2041-07-17T14:41:25+02:00</time>
      </trkpt>
      <trkpt lat="44.50651" lon="-0.14535">
        <ele>69.9</ele>
        <time>2041-07-17T14:41:30+02:00</time>
      </trkpt>
      <trkpt lat="44.50654" lon="-0.14573">
        <ele>69.8</ele>
        <time>2041-07-17T14:41:35+02:00</time>
      </trkpt>
      <trkpt lat="44.50656" lon="-0.14609">
        <ele>70</ele>
        <time>2041-07-17T14:41:40+02:00</time>
      </trkpt>
      <trkpt lat="44.50659" lon="-0.14645">
        <ele>69.8</ele>
        <time>2041-07-17T14:41:45+02:00</time>
      </trkpt>
      <trkpt lat="44.50663" lon="-0.14681">
        <ele>69.1</ele>
        <time>2041-07-17T14:41:50+02:00</time>
      </trkpt>
      <trkpt lat="44.50666" lon="-0.14718">
        <ele>69</ele>
        <time>2041-07-17T14:41:55+02:00</time>
      </trkpt>
      <trkpt lat="44.50668" lon="-0.14759">
        <ele>69.3</ele>
        <time>2041-07-17T14:42:00+02:00</time>
      </trkpt>
      <trkpt lat="44.50668" lon="-0.14771">
        <ele>69.7</ele>
        <time>2041-07-17T14:42:05+02:00</time>
      </trkpt>
      <trkpt lat="44.50666" lon="-0.14771">
        <ele>69.8</ele>
        <time>2041-07-17T14:42:10+02:00</time>
      </trkpt>
      <trkpt lat="44.50659" lon="-0.14769">
        <ele>69.8</ele>
        <time>2041-07-17T14:42:15+02:00</time>
      </trkpt>
      <trkpt lat="44.50647" lon="-0.1476">
        <ele>69.8</ele>
        <time>2041-07-17T14:42:20+02:00</time>
      </trkpt>
      <trkpt lat="44.50632" lon="-0.1475">
        <ele>70.3</ele>
        <time>2041-07-17T14:42:25+02:00</time>
      </trkpt>
      <trkpt lat="44.50616" lon="-0.14743">
        <ele>70.8</ele>
        <time>2041-07-17T14:42:30+02:00</time>
      </trkpt>
      <trkpt lat="44.506" lon="-0.14738">
        <ele>71.2</ele>
        <time>2041-07-17T14:42:35+02:00</time>
      </trkpt>
      <trkpt lat="44.50584" lon="-0.14733">
        <ele>71.4</ele>
        <time>2041-07-17T14:42:40+02:00</time>
      </trkpt>
      <trkpt lat="44.50568" lon="-0.14728">
        <ele>71.8</ele>
        <time>2041-07-17T14:42:45+02:00</time>
      </trkpt>
      <trkpt lat="44.50551" lon="-0.14723">
        <ele>72.2</ele>
        <time>2041-07-17T14:42:50+02:00</time>
      </trkpt>
      <trkpt lat="44.50534" lon="-0.14717">
        <ele>72.8</ele>
        <time>2041-07-17T14:42:55+02:00</time>
      </trkpt>
      <trkpt lat="44.50518" lon="-0.14708">
        <ele>73.3</ele>
        <time>2041-07-17T14:43:00+02:00</time>
      </trkpt>
      <trkpt lat="44.50504" lon="-0.14696">
        <ele>73.8</ele>
        <time>2041-07-17T14:43:05+02:00</time>
      </trkpt>
      <trkpt lat="44.50489" lon="-0.14676">
        <ele>74.1</ele>
        <time>2041-07-17T14:43:10+02:00</time>
      </trkpt>
      <trkpt lat="44.50478" lon="-0.14664">
        <ele>74</ele>
        <time>2041-07-17T14:43:15+02:00</time>
      </trkpt>
      <trkpt lat="44.50461" lon="-0.14652">
        <ele>74.4</ele>
        <time>2041-07-17T14:43:20+02:00</time>
      </trkpt>
      <trkpt lat="44.50443" lon="-0.14643">
        <ele>75</ele>
        <time>2041-07-17T14:43:25+02:00</time>
      </trkpt>
      <trkpt lat="44.50427" lon="-0.14639">
        <ele>75.6</ele>
        <time>2041-07-17T14:43:30+02:00</time>
      </trkpt>
      <trkpt lat="44.50411" lon="-0.14639">
        <ele>76.2</ele>
        <time>2041-07-17T14:43:35+02:00</time>
      </trkpt>
      <trkpt lat="44.50395" lon="-0.14643">
        <ele>76.9</ele>
        <time>2041-07-17T14:43:40+02:00</time>
      </trkpt>
      <trkpt lat="44.50378" lon="-0.14649">
        <ele>77.7</ele>
        <time>2041-07-17T14:43:45+02:00</time>
      </trkpt>
      <trkpt lat="44.50362" lon="-0.14658">
        <ele>78.6</ele>
        <time>2041-07-17T14:43:50+02:00</time>
      </trkpt>
      <trkpt lat="44.50348" lon="-0.1467">
        <ele>79.5</ele>
        <time>2041-07-17T14:43:55+02:00</time>
      </trkpt>
      <trkpt lat="44.50335" lon="-0.14686">
        <ele>80.6</ele>
        <time>2041-07-17T14:44:00+02:00</time>
      </trkpt>
      <trkpt lat="44.50325" lon="-0.14703">
        <ele>81.6</ele>
        <time>2041-07-17T14:44:05+02:00</time>
      </trkpt>
      <trkpt lat="44.50315" lon="-0.14723">
        <ele>82.3</ele>
        <time>2041-07-17T14:44:10+02:00</time>
      </trkpt>
      <trkpt lat="44.50303" lon="-0.14741">
        <ele>83.1</ele>
        <time>2041-07-17T14:44:15+02:00</time>
      </trkpt>
      <trkpt lat="44.50289" lon="-0.14756">
        <ele>83.8</ele>
        <time>2041-07-17T14:44:20+02:00</time>
      </trkpt>
      <trkpt lat="44.50273" lon="-0.14767">
        <ele>84.8</ele>
        <time>2041-07-17T14:44:25+02:00</time>
      </trkpt>
      <trkpt lat="44.50256" lon="-0.14774">
        <ele>85.7</ele>
        <time>2041-07-17T14:44:30+02:00</time>
      </trkpt>
      <trkpt lat="44.5024" lon="-0.14782">
        <ele>86.4</ele>
        <time>2041-07-17T14:44:35+02:00</time>
      </trkpt>
      <trkpt lat="44.50223" lon="-0.14787">
        <ele>87</ele>
        <time>2041-07-17T14:44:40+02:00</time>
      </trkpt>
      <trkpt lat="44.50206" lon="-0.14793">
        <ele>87.9</ele>
        <time>2041-07-17T14:44:45+02:00</time>
      </trkpt>
      <trkpt lat="44.50188" lon="-0.14795">
        <ele>88.8</ele>
        <time>2041-07-17T14:44:50+02:00</time>
      </trkpt>
      <trkpt lat="44.5017" lon="-0.14796">
        <ele>89.8</ele>
        <time>2041-07-17T14:44:55+02:00</time>
      </trkpt>
      <trkpt lat="44.50153" lon="-0.14796">
        <ele>90.7</ele>
        <time>2041-07-17T14:45:00+02:00</time>
      </trkpt>
      <trkpt lat="44.50135" lon="-0.148">
        <ele>91.5</ele>
        <time>2041-07-17T14:45:05+02:00</time>
      </trkpt>
      <trkpt lat="44.50119" lon="-0.14806">
        <ele>92.4</ele>
        <time>2041-07-17T14:45:10+02:00</time>
      </trkpt>
      <trkpt lat="44.50111" lon="-0.14794">
        <ele>93.5</ele>
        <time>2041-07-17T14:45:15+02:00</time>
      </trkpt>
      <trkpt lat="44.50107" lon="-0.14775">
        <ele>94.1</ele>
        <time>2041-07-17T14:45:20+02:00</time>
      </trkpt>
      <trkpt lat="44.50103" lon="-0.14752">
        <ele>94.3</ele>
        <time>2041-07-17T14:45:25+02:00</time>
      </trkpt>
      <trkpt lat="44.50098" lon="-0.14726">
        <ele>94.5</ele>
        <time>2041-07-17T14:45:30+02:00</time>
      </trkpt>
      <trkpt lat="44.50093" lon="-0.14698">
        <ele>94.1</ele>
        <time>2041-07-17T14:45:35+02:00</time>
      </trkpt>
      <trkpt lat="44.50089" lon="-0.14667">
        <ele>93.6</ele>
        <time>2041-07-17T14:45:40+02:00</time>
      </trkpt>
      <trkpt lat="44.50085" lon="-0.14637">
        <ele>93.8</ele>
        <time>2041-07-17T14:45:45+02:00</time>
      </trkpt>
      <trkpt lat="44.50082" lon="-0.14612">
        <ele>93.1</ele>
        <time>2041-07-17T14:45:50+02:00</time>
      </trkpt>
      <trkpt lat="44.5008" lon="-0.1459">
        <ele>93.2</ele>
        <time>2041-07-17T14:45:55+02:00</time>
      </trkpt>
      <trkpt lat="44.50077" lon="-0.14562">
        <ele>92.6</ele>
        <time>2041-07-17T14:46:00+02:00</time>
      </trkpt>
      <trkpt lat="44.50073" lon="-0.14531">
        <ele>92.8</ele>
        <time>2041-07-17T14:46:05+02:00</time>
      </trkpt>
      <trkpt lat="44.50068" lon="-0.14497">
        <ele>92.5</ele>
        <time>2041-07-17T14:46:10+02:00</time>
      </trkpt>
      <trkpt lat="44.50064" lon="-0.14462">
        <ele>92.1</ele>
        <time>2041-07-17T14:46:15+02:00</time>
      </trkpt>
      <trkpt lat="44.50061" lon="-0.14431">
        <ele>91.7</ele>
        <time>2041-07-17T14:46:20+02:00</time>
      </trkpt>
      <trkpt lat="44.50058" lon="-0.14403">
        <ele>91.4</ele>
        <time>2041-07-17T14:46:25+02:00</time>
      </trkpt>
      <trkpt lat="44.50054" lon="-0.14378">
        <ele>91</ele>
        <time>2041-07-17T14:46:30+02:00</time>
      </trkpt>
      <trkpt lat="44.50051" lon="-0.14352">
        <ele>90.9</ele>
        <time>2041-07-17T14:46:35+02:00</time>
      </trkpt>
      <trkpt lat="44.50047" lon="-0.14322">
        <ele>90.6</ele>
        <time>2041-07-17T14:46:40+02:00</time>
      </trkpt>
      <trkpt lat="44.50043" lon="-0.14289">
        <ele>90.6</ele>
        <time>2041-07-17T14:46:45+02:00</time>
      </trkpt>
      <trkpt lat="44.50039" lon="-0.14264">
        <ele>90.1</ele>
        <time>2041-07-17T14:46:50+02:00</time>
      </trkpt>
      <trkpt lat="44.50038" lon="-0.14257">
        <ele>89.9</ele>
        <time>2041-07-17T14:46:55+02:00</time>
      </trkpt>
      <trkpt lat="44.50038" lon="-0.14257">
        <ele>89.9</ele>
        <time>2041-07-17T14:47:00+02:00</time>
      </trkpt>
      <trkpt lat="44.5004" lon="-0.1425">
        <ele>89.6</ele>
        <time>2041-07-17T14:47:05+02:00</time>
      </trkpt>
      <trkpt lat="44.50055" lon="-0.1424">
        <ele>89</ele>
        <time>2041-07-17T14:47:10+02:00</time>
      </trkpt>
      <trkpt lat="44.50076" lon="-0.14231">
        <ele>87.8</ele>
        <time>2041-07-17T14:47:15+02:00</time>
      </trkpt>
      <trkpt lat="44.50097" lon="-0.14219">
        <ele>86.5</ele>
        <time>2041-07-17T14:47:20+02:00</time>
      </trkpt>
      <trkpt lat="44.50115" lon="-0.14197">
        <ele>85.9</ele>
        <time>2041-07-17T14:47:25+02:00</time>
      </trkpt>
      <trkpt lat="44.50131" lon="-0.14174">
        <ele>85.3</ele>
        <time>2041-07-17T14:47:30+02:00</time>
      </trkpt>
      <trkpt lat="44.50148" lon="-0.14151">
        <ele>84.7</ele>
        <time>2041-07-17T14:47:35+02:00</time>
      </trkpt>
      <trkpt lat="44.50164" lon="-0.1413">
        <ele>84.1</ele>
        <time>2041-07-17T14:47:40+02:00</time>
      </trkpt>
      <trkpt lat="44.50178" lon="-0.14109">
        <ele>83.6</ele>
        <time>2041-07-17T14:47:45+02:00</time>
      </trkpt>
      <trkpt lat="44.50192" lon="-0.1409">
        <ele>82.4</ele>
        <time>2041-07-17T14:47:50+02:00</time>
      </trkpt>
      <trkpt lat="44.50207" lon="-0.1407">
        <ele>81.8</ele>
        <time>2041-07-17T14:47:55+02:00</time>
      </trkpt>
      <trkpt lat="44.50221" lon="-0.1405">
        <ele>81.2</ele>
        <time>2041-07-17T14:48:00+02:00</time>
      </trkpt>
      <trkpt lat="44.50236" lon="-0.14042">
        <ele>81</ele>
        <time>2041-07-17T14:48:05+02:00</time>
      </trkpt>
      <trkpt lat="44.50245" lon="-0.14056">
        <ele>81</ele>
        <time>2041-07-17T14:48:10+02:00</time>
      </trkpt>
      <trkpt lat="44.50254" lon="-0.14066">
        <ele>80.8</ele>
        <time>2041-07-17T14:48:15+02:00</time>
      </trkpt>
      <trkpt lat="44.50258" lon="-0.14078">
        <ele>80.7</ele>
        <time>2041-07-17T14:48:20+02:00</time>
      </trkpt>
      <trkpt lat="44.50255" lon="-0.14077">
        <ele>80.8</ele>
        <time>2041-07-17T14:48:25+02:00</time>
      </trkpt>
      <trkpt lat="44.50254" lon="-0.14076">
        <ele>80.9</ele>
        <time>2041-07-17T14:48:30+02:00</time>
      </trkpt>
      <trkpt lat="44.50253" lon="-0.14075">
        <ele>80.9</ele>
        <time>2041-07-17T14:48:35+02:00</time>
      </trkpt>
      <trkpt lat="44.50253" lon="-0.14075">
        <ele>80.9</ele>
        <time>2041-07-17T14:48:40+02:00</time>
      </trkpt>
      <trkpt lat="44.50253" lon="-0.14076">
        <ele>80.9</ele>
        <time>2041-07-17T14:48:45+02:00</time>
      </trkpt>
      <trkpt lat="44.50253" lon="-0.14076">
        <ele>80.9</ele>
        <time>2041-07-17T14:48:48+02:00</time>
      </trkpt>
      <trkpt lat="44.50253" lon="-0.14076">
        <ele>80.9</ele>
        <time>2041-07-17T14:48:48+02:00</time>
      </trkpt>
      <trkpt lat="44.50253" lon="-0.14076">
        <ele>80.9</ele>
        <time>2041-07-17T14:48:48+02:00</time>
      </trkpt>
      <trkpt lat="44.50253" lon="-0.14076">
        <ele>80.9</ele>
        <time>2041-07-17T14:48:50+02:00</time>
      </trkpt>
      <trkpt lat="44.50253" lon="-0.14076">
        <ele>80.9</ele>
        <time>2041-07-17T14:48:53+02:00</time>
      </trkpt>
      <trkpt lat="44.50253" lon="-0.14076">
        <ele>80.9</ele>
        <time>2041-07-17T14:48:53+02:00</time>
      </trkpt>
      <trkpt lat="44.50253" lon="-0.14076">
        <ele>80.9</ele>
        <time>2041-07-17T14:48:53+02:00</time>
      </trkpt>
      <trkpt lat="44.50253" lon="-0.14076">
        <ele>80.9</ele>
        <time>2041-07-17T14:48:55+02:00</time>
      </trkpt>
      <trkpt lat="44.50252" lon="-0.14076">
        <ele>80.9</ele>
        <time>2041-07-17T14:49:00+02:00</time>
      </trkpt>
      <trkpt lat="44.50252" lon="-0.14075">
        <ele>80.9</ele>
        <time>2041-07-17T14:49:05+02:00</time>
      </trkpt>
      <trkpt lat="44.50252" lon="-0.14075">
        <ele>80.9</ele>
        <time>2041-07-17T14:49:10+02:00</time>
      </trkpt>
      <trkpt lat="44.50251" lon="-0.14075">
        <ele>81</ele>
        <time>2041-07-17T14:49:15+02:00</time>
      </trkpt>
      <trkpt lat="44.50251" lon="-0.14074">
        <ele>81</ele>
        <time>2041-07-17T14:49:20+02:00</time>
      </trkpt>
      <trkpt lat="44.50251" lon="-0.14074">
        <ele>81</ele>
        <time>2041-07-17T14:49:25+02:00</time>
      </trkpt>
      <trkpt lat="44.5025" lon="-0.14074">
        <ele>81</ele>
        <time>2041-07-17T14:49:30+02:00</time>
      </trkpt>
      <trkpt lat="44.50244" lon="-0.14085">
        <ele>81.2</ele>
        <time>2041-07-17T14:49:34+02:00</time>
      </trkpt>
    </trkseg>
  </trk>
</gpx>